createdAt,value
2019-04-07T00:00:22.499Z,36.43
2019-04-07T00:02:50.065Z,48.70
2019-04-07T00:05:17.632Z,43.57
2019-04-07T00:07:45.202Z,51.13
2019-04-07T00:10:13.432Z,54.40
2019-04-07T00:12:41.255Z,47.67
2019-04-07T00:15:09.502Z,41.57
2019-04-07T00:17:37.485Z,34.60
2019-04-07T00:20:04.691Z,34.37
2019-04-07T00:22:32.389Z,30.57
2019-04-07T00:24:59.862Z,30.73
2019-04-07T00:27:27.430Z,28.40
2019-04-07T00:29:56.358Z,29.23
2019-04-07T00:32:23.521Z,29.03
2019-04-07T00:34:51.080Z,27.87
2019-04-07T00:37:18.634Z,29.30
2019-04-07T00:39:46.654Z,29.33
2019-04-07T00:42:15.492Z,30.27
2019-04-07T00:44:43.296Z,28.70
2019-04-07T00:47:10.688Z,27.87
2019-04-07T00:49:38.286Z,29.77
2019-04-07T00:52:06.163Z,29.40
2019-04-07T00:54:35.916Z,28.13
2019-04-07T00:57:03.263Z,29.90
2019-04-07T00:59:30.888Z,29.23
2019-04-07T01:01:58.426Z,28.47
2019-04-07T01:04:28.489Z,28.10
2019-04-07T01:06:57.529Z,30.57
2019-04-07T01:09:25.042Z,28.33
2019-04-07T01:11:52.713Z,29.80
2019-04-07T01:14:20.368Z,28.47
2019-04-07T01:16:48.215Z,29.43
2019-04-07T01:19:15.534Z,28.90
2019-04-07T01:21:43.577Z,27.63
2019-04-07T01:24:10.700Z,26.97
2019-04-07T01:26:38.258Z,29.67
2019-04-07T01:29:05.815Z,27.40
2019-04-07T01:31:33.952Z,28.13
2019-04-07T01:34:00.990Z,28.50
2019-04-07T01:36:29.335Z,25.70
2019-04-07T01:38:59.982Z,29.10
2019-04-07T01:44:37.535Z,30.48
2019-04-07T01:47:10.015Z,27.17
2019-04-07T01:49:38.574Z,26.57
2019-04-07T01:52:21.183Z,27.27
2019-04-07T01:54:54.801Z,27.33
2019-04-07T01:57:36.634Z,25.70
2019-04-07T02:00:11.143Z,25.60
2019-04-07T02:02:41.325Z,25.67
2019-04-07T02:05:11.934Z,27.60
2019-04-07T02:07:43.597Z,29.30
2019-04-07T02:10:13.692Z,31.07
2019-04-07T02:12:44.591Z,27.30
2019-04-07T02:15:13.892Z,27.20
2019-04-07T02:17:59.327Z,28.03
2019-04-07T02:20:38.734Z,25.97
2019-04-07T02:23:07.644Z,26.80
2019-04-07T02:25:37.320Z,25.90
2019-04-07T02:28:06.407Z,27.00
2019-04-07T02:30:49.190Z,25.27
2019-04-07T02:33:31.640Z,24.87
2019-04-07T02:36:22.824Z,27.50
2019-04-07T02:38:44.098Z,26.27
2019-04-07T02:41:13.643Z,27.70
2019-04-07T02:43:41.225Z,31.43
2019-04-07T02:46:15.777Z,27.30
2019-04-07T02:48:48.905Z,28.83
2019-04-07T02:51:17.928Z,29.10
2019-04-07T02:56:45.034Z,30.98
2019-04-07T02:59:16.180Z,28.53
2019-04-07T03:01:49.707Z,28.23
2019-04-07T03:04:23.106Z,28.03
2019-04-07T03:07:08.430Z,28.30
2019-04-07T03:09:36.541Z,26.60
2019-04-07T03:12:09.063Z,28.33
2019-04-07T03:14:43.055Z,26.00
2019-04-07T03:17:11.778Z,26.40
2019-04-07T03:19:56.203Z,26.13
2019-04-07T03:22:36.739Z,27.33
2019-04-07T03:25:11.672Z,28.50
2019-04-07T03:27:52.758Z,27.60
2019-04-07T03:30:22.415Z,26.43
2019-04-07T03:32:54.392Z,27.70
2019-04-07T03:35:32.823Z,30.73
2019-04-07T03:38:02.819Z,27.53
2019-04-07T03:40:44.110Z,29.70
2019-04-07T03:43:13.431Z,29.23
2019-04-07T03:45:55.959Z,27.50
2019-04-07T03:48:33.479Z,29.27
2019-04-07T03:51:08.943Z,27.13
2019-04-07T03:53:35.855Z,29.00
2019-04-07T03:56:04.062Z,27.83
2019-04-07T03:58:37.579Z,27.83
2019-04-07T04:04:05.635Z,28.67
2019-04-07T04:06:38.949Z,29.53
2019-04-07T04:09:17.419Z,26.70
2019-04-07T04:14:41.938Z,29.05
2019-04-07T04:17:09.605Z,26.97
2019-04-07T04:19:37.869Z,37.53
2019-04-07T04:22:05.934Z,32.77
2019-04-07T04:24:35.096Z,34.03
2019-04-07T04:27:02.681Z,34.30
2019-04-07T04:29:30.238Z,33.90
2019-04-07T04:31:57.808Z,29.30
2019-04-07T04:34:25.368Z,29.10
2019-04-07T04:36:53.085Z,28.20
2019-04-07T04:39:21.212Z,28.30
2019-04-07T04:41:49.019Z,28.23
2019-04-07T04:44:16.500Z,29.17
2019-04-07T04:46:43.369Z,29.87
2019-04-07T04:49:11.955Z,25.33
2019-04-07T04:51:40.947Z,26.30
2019-04-07T04:54:07.283Z,27.53
2019-04-07T04:56:36.152Z,28.10
2019-04-07T04:59:04.036Z,28.50
2019-04-07T05:01:31.046Z,28.37
2019-04-07T05:03:58.498Z,27.50
2019-04-07T05:06:27.977Z,27.73
2019-04-07T05:08:55.552Z,27.73
2019-04-07T05:11:23.844Z,28.27
2019-04-07T05:13:51.489Z,28.90
2019-04-07T05:16:19.721Z,28.50
2019-04-07T05:18:46.755Z,27.57
2019-04-07T05:21:14.985Z,28.73
2019-04-07T05:23:41.926Z,26.93
2019-04-07T05:26:11.004Z,28.03
2019-04-07T05:28:40.473Z,28.10
2019-04-07T05:31:07.595Z,29.10
2019-04-07T05:33:35.540Z,30.70
2019-04-07T05:36:04.852Z,25.73
2019-04-07T05:38:32.351Z,27.43
2019-04-07T05:41:00.312Z,27.43
2019-04-07T05:43:27.521Z,27.93
2019-04-07T05:45:55.475Z,31.87
2019-04-07T05:48:23.809Z,30.30
2019-04-07T05:50:51.918Z,28.60
2019-04-07T05:53:19.509Z,28.90
2019-04-07T05:55:47.554Z,27.80
2019-04-07T05:58:16.607Z,27.80
2019-04-07T06:00:47.024Z,29.57
2019-04-07T06:03:12.175Z,32.40
2019-04-07T06:05:39.988Z,54.27
2019-04-07T06:08:22.450Z,42.03
2019-04-07T06:10:34.898Z,29.97
2019-04-07T06:13:02.207Z,30.80
2019-04-07T06:15:30.287Z,29.67
2019-04-07T06:18:01.380Z,27.30
2019-04-07T06:20:26.704Z,26.60
2019-04-07T06:22:54.653Z,26.50
2019-04-07T06:25:22.640Z,28.30
2019-04-07T06:27:50.206Z,28.37
2019-04-07T06:30:17.767Z,28.80
2019-04-07T06:32:46.224Z,28.03
2019-04-07T06:35:13.964Z,32.90
2019-04-07T06:37:40.702Z,30.07
2019-04-07T06:40:08.970Z,30.30
2019-04-07T06:42:36.473Z,32.57
2019-04-07T06:45:05.358Z,30.77
2019-04-07T06:47:50.794Z,38.30
2019-04-07T06:50:23.340Z,35.40
2019-04-07T06:53:01.324Z,33.90
2019-04-07T06:55:35.231Z,32.37
2019-04-07T06:58:08.376Z,33.40
2019-04-07T07:00:35.263Z,67.13
2019-04-07T07:03:04.422Z,30.47
2019-04-07T07:05:37.322Z,20.10
2019-04-07T07:08:08.425Z,18.87
2019-04-07T07:10:42.682Z,25.37
2019-04-07T07:13:30.637Z,29.47
2019-04-07T07:16:00.466Z,22.97
2019-04-07T07:18:36.422Z,23.60
2019-04-07T07:21:19.128Z,23.57
2019-04-07T07:23:49.061Z,24.00
2019-04-07T07:26:15.012Z,24.03
2019-04-07T07:28:44.996Z,24.27
2019-04-07T07:31:11.107Z,21.20
2019-04-07T07:33:41.773Z,24.13
2019-04-07T07:36:07.067Z,20.67
2019-04-07T07:38:34.650Z,20.63
2019-04-07T07:41:03.634Z,22.00
2019-04-07T07:43:30.263Z,23.00
2019-04-07T07:45:59.043Z,19.40
2019-04-07T07:48:27.335Z,20.90
2019-04-07T07:50:53.789Z,18.20
2019-04-07T07:53:23.708Z,17.60
2019-04-07T07:55:49.651Z,17.57
2019-04-07T07:58:16.522Z,16.97
2019-04-07T08:00:44.841Z,18.57
2019-04-07T08:03:12.099Z,19.80
2019-04-07T08:05:39.291Z,23.30
2019-04-07T08:08:06.864Z,21.83
2019-04-07T08:10:35.027Z,21.17
2019-04-07T08:13:05.114Z,24.80
2019-04-07T08:15:32.262Z,27.40
2019-04-07T08:17:57.375Z,27.13
2019-04-07T08:20:24.877Z,25.30
2019-04-07T08:22:52.435Z,25.57
2019-04-07T08:25:22.303Z,23.20
2019-04-07T08:27:47.703Z,22.67
2019-04-07T08:30:15.243Z,23.20
2019-04-07T08:32:43.200Z,20.73
2019-04-07T08:35:10.421Z,22.27
2019-04-07T08:37:38.352Z,22.70
2019-04-07T08:40:07.701Z,22.80
2019-04-07T08:42:33.457Z,23.67
2019-04-07T08:45:03.303Z,21.97
2019-04-07T08:47:30.246Z,20.27
2019-04-07T08:49:57.958Z,23.10
2019-04-07T08:52:26.023Z,22.27
2019-04-07T08:54:53.517Z,21.17
2019-04-07T08:57:22.606Z,19.07
2019-04-07T08:59:50.666Z,15.13
2019-04-07T09:02:19.220Z,15.90
2019-04-07T09:04:49.734Z,18.40
2019-04-07T09:07:14.076Z,18.73
2019-04-07T09:09:46.637Z,19.47
2019-04-07T09:12:09.279Z,15.97
2019-04-07T09:14:39.847Z,15.33
2019-04-07T09:17:11.705Z,14.37
2019-04-07T09:19:54.804Z,14.97
2019-04-07T09:25:27.186Z,15.75
2019-04-07T09:27:54.087Z,17.90
2019-04-07T09:30:24.949Z,16.10
2019-04-07T09:33:07.080Z,17.77
2019-04-07T09:35:38.939Z,16.90
2019-04-07T09:38:27.344Z,18.30
2019-04-07T09:44:05.225Z,16.83
2019-04-07T09:46:33.261Z,17.33
2019-04-07T09:49:01.322Z,16.17
2019-04-07T09:54:34.983Z,17.48
2019-04-07T09:57:22.309Z,16.23
2019-04-07T10:00:07.131Z,16.37
2019-04-07T10:02:48.026Z,16.33
2019-04-07T10:08:19.525Z,15.68
2019-04-07T10:10:50.943Z,16.70
2019-04-07T10:13:19.425Z,16.63
2019-04-07T10:15:54.261Z,19.80
2019-04-07T10:18:33.501Z,20.07
2019-04-07T10:21:05.334Z,17.07
2019-04-07T10:23:52.490Z,16.40
2019-04-07T10:26:21.994Z,15.37
2019-04-07T10:28:51.690Z,15.37
2019-04-07T10:34:19.012Z,15.48
2019-04-07T10:36:51.148Z,15.77
2019-04-07T10:39:20.900Z,14.63
2019-04-07T10:41:55.265Z,13.90
2019-04-07T10:47:18.391Z,14.27
2019-04-07T10:49:57.904Z,17.13
2019-04-07T10:52:21.401Z,13.93
2019-04-07T10:54:58.379Z,15.57
2019-04-07T10:57:46.975Z,13.83
2019-04-07T11:00:26.795Z,14.33
2019-04-07T11:05:50.432Z,12.27
2019-04-07T11:08:34.339Z,12.73
2019-04-07T11:11:07.877Z,35.03
2019-04-07T11:13:37.014Z,21.10
2019-04-07T11:16:10.987Z,14.30
2019-04-07T11:18:40.265Z,13.93
2019-04-07T11:21:09.526Z,28.70
2019-04-07T11:23:45.248Z,18.53
2019-04-07T11:26:16.773Z,17.70
2019-04-07T11:28:44.592Z,13.30
2019-04-07T11:31:16.830Z,12.03
2019-04-07T11:33:44.981Z,12.10
2019-04-07T11:36:12.804Z,12.43
2019-04-07T11:38:56.153Z,14.97
2019-04-07T11:41:27.714Z,10.80
2019-04-07T11:44:09.626Z,9.30
2019-04-07T11:46:38.983Z,9.93
2019-04-07T11:49:21.480Z,9.40
2019-04-07T11:51:52.339Z,12.00
2019-04-07T11:54:35.699Z,10.30
2019-04-07T11:57:04.439Z,8.90
2019-04-07T11:59:34.919Z,7.73
2019-04-07T12:02:07.455Z,7.10
2019-04-07T12:04:35.681Z,6.40
2019-04-07T12:07:08.934Z,5.80
2019-04-07T12:09:51.066Z,5.30
2019-04-07T12:12:24.610Z,6.50
2019-04-07T12:14:54.578Z,6.13
2019-04-07T12:17:25.903Z,6.50
2019-04-07T12:19:58.051Z,8.27
2019-04-07T12:22:28.308Z,7.30
2019-04-07T12:24:59.243Z,6.97
2019-04-07T12:27:24.097Z,8.90
2019-04-07T12:32:54.095Z,7.07
2019-04-07T12:38:23.104Z,7.05
2019-04-07T12:40:56.392Z,6.90
2019-04-07T12:43:26.116Z,6.40
2019-04-07T12:48:56.639Z,6.87
2019-04-07T12:51:28.999Z,7.90
2019-04-07T12:54:07.364Z,5.87
2019-04-07T12:56:34.309Z,7.40
2019-04-07T12:59:17.915Z,7.10
2019-04-07T13:01:49.224Z,9.90
2019-04-07T13:04:34.310Z,5.93
2019-04-07T13:07:05.668Z,5.63
2019-04-07T13:09:37.906Z,5.37
2019-04-07T13:12:05.632Z,6.07
2019-04-07T13:14:40.967Z,5.37
2019-04-07T13:17:31.428Z,5.40
2019-04-07T13:20:00.880Z,5.30
2019-04-07T13:22:32.528Z,4.73
2019-04-07T13:25:18.690Z,4.43
2019-04-07T13:27:44.007Z,5.70
2019-04-07T13:30:17.069Z,5.07
2019-04-07T13:32:55.086Z,4.80
2019-04-07T13:35:38.600Z,4.93
2019-04-07T13:38:09.295Z,4.43
2019-04-07T13:40:40.765Z,5.20
2019-04-07T13:43:13.335Z,4.40
2019-04-07T13:45:46.775Z,4.03
2019-04-07T13:48:30.061Z,4.47
2019-04-07T13:50:57.689Z,4.77
2019-04-07T13:53:29.500Z,4.50
2019-04-07T13:56:10.008Z,4.43
2019-04-07T14:01:38.638Z,4.78
2019-04-07T14:04:10.504Z,5.23
2019-04-07T14:06:37.331Z,4.80
2019-04-07T14:09:07.236Z,4.90
2019-04-07T14:11:58.302Z,5.30
2019-04-07T14:14:19.000Z,6.60
2019-04-07T14:16:48.694Z,6.03
2019-04-07T14:19:32.091Z,7.80
2019-04-07T14:22:06.536Z,7.97
2019-04-07T14:24:52.655Z,8.30
2019-04-07T14:27:37.321Z,8.37
2019-04-07T14:30:20.302Z,9.33
2019-04-07T14:32:49.833Z,8.87
2019-04-07T14:35:20.615Z,9.03
2019-04-07T14:37:49.493Z,8.37
2019-04-07T14:40:22.441Z,8.60
2019-04-07T14:42:52.346Z,8.67
2019-04-07T14:45:27.272Z,8.50
2019-04-07T14:48:09.829Z,10.30
2019-04-07T14:50:53.831Z,21.73
2019-04-07T14:53:22.489Z,12.57
2019-04-07T14:55:56.020Z,9.00
2019-04-07T14:58:29.147Z,13.67
2019-04-07T15:01:02.547Z,11.77
2019-04-07T15:03:27.431Z,20.40
2019-04-07T15:05:56.363Z,9.70
2019-04-07T15:08:30.317Z,10.47
2019-04-07T15:10:58.300Z,7.17
2019-04-07T15:13:28.094Z,7.10
2019-04-07T15:15:53.167Z,7.40
2019-04-07T15:18:21.458Z,10.23
2019-04-07T15:20:49.404Z,11.07
2019-04-07T15:23:17.566Z,6.80
2019-04-07T15:25:46.997Z,10.53
2019-04-07T15:28:12.318Z,9.73
2019-04-07T15:30:40.595Z,9.07
2019-04-07T15:33:11.821Z,8.17
2019-04-07T15:35:36.931Z,10.20
2019-04-07T15:38:05.421Z,8.73
2019-04-07T15:40:36.258Z,8.50
2019-04-07T15:43:04.707Z,7.27
2019-04-07T15:45:30.838Z,8.40
2019-04-07T15:48:00.661Z,14.00
2019-04-07T15:50:30.131Z,11.10
2019-04-07T15:52:55.276Z,12.40
2019-04-07T15:55:26.374Z,7.93
2019-04-07T15:57:53.442Z,6.70
2019-04-07T16:00:18.460Z,18.20
2019-04-07T16:02:46.028Z,16.33
2019-04-07T16:05:13.649Z,12.20
2019-04-07T16:07:40.701Z,13.03
2019-04-07T16:10:08.117Z,13.70
2019-04-07T16:12:44.214Z,11.60
2019-04-07T16:15:04.089Z,11.40
2019-04-07T16:17:33.906Z,14.63
2019-04-07T16:19:58.948Z,8.93
2019-04-07T16:22:28.918Z,10.53
2019-04-07T16:24:57.288Z,10.30
2019-04-07T16:27:26.024Z,10.07
2019-04-07T16:29:52.949Z,8.13
2019-04-07T16:32:20.460Z,7.53
2019-04-07T16:34:48.057Z,7.20
2019-04-07T16:37:15.898Z,7.50
2019-04-07T16:39:43.247Z,7.70
2019-04-07T16:42:10.864Z,7.80
2019-04-07T16:44:42.611Z,8.57
2019-04-07T16:47:17.219Z,9.03
2019-04-07T16:49:35.864Z,8.27
2019-04-07T16:52:03.588Z,9.47
2019-04-07T16:54:31.397Z,8.43
2019-04-07T16:57:00.399Z,7.90
2019-04-07T16:59:27.956Z,8.20
2019-04-07T17:01:55.521Z,8.90
2019-04-07T17:04:23.091Z,10.00
2019-04-07T17:07:01.712Z,9.00
2019-04-07T17:09:18.269Z,9.03
2019-04-07T17:11:46.102Z,11.37
2019-04-07T17:14:16.234Z,10.57
2019-04-07T17:16:45.514Z,10.53
2019-04-07T17:19:11.514Z,9.83
2019-04-07T17:21:41.126Z,9.33
2019-04-07T17:24:08.622Z,8.77
2019-04-07T17:26:38.259Z,9.20
2019-04-07T17:29:04.427Z,8.50
2019-04-07T17:31:32.672Z,8.47
2019-04-07T17:34:00.492Z,7.13
2019-04-07T17:36:28.220Z,8.80
2019-04-07T17:38:58.901Z,8.80
2019-04-07T17:41:26.462Z,8.10
2019-04-07T17:44:00.669Z,8.80
2019-04-07T17:46:28.598Z,8.70
2019-04-07T17:48:57.653Z,8.90
2019-04-07T17:51:23.978Z,9.80
2019-04-07T17:53:57.171Z,11.20
2019-04-07T17:56:29.799Z,9.00
2019-04-07T17:58:58.569Z,9.90
2019-04-07T18:04:23.350Z,10.32
2019-04-07T18:09:53.307Z,9.48
2019-04-07T18:12:27.074Z,11.37
2019-04-07T18:15:03.607Z,12.23
2019-04-07T18:17:30.047Z,11.67
2019-04-07T18:20:07.173Z,11.20
2019-04-07T18:22:31.511Z,11.50
2019-04-07T18:25:16.151Z,12.30
2019-04-07T18:27:59.940Z,12.03
2019-04-07T18:30:34.483Z,14.00
2019-04-07T18:33:00.938Z,13.03
2019-04-07T18:35:39.268Z,12.97
2019-04-07T18:38:11.422Z,10.27
2019-04-07T18:40:39.667Z,9.70
2019-04-07T18:43:08.151Z,10.03
2019-04-07T18:45:36.362Z,8.87
2019-04-07T18:48:27.245Z,10.53
2019-04-07T18:50:54.653Z,10.30
2019-04-07T18:53:27.694Z,10.37
2019-04-07T18:58:52.536Z,11.27
2019-04-07T19:01:18.583Z,12.30
2019-04-07T19:03:53.292Z,12.43
2019-04-07T19:09:32.258Z,15.63
2019-04-07T19:12:05.818Z,13.60
2019-04-07T19:14:52.102Z,12.13
2019-04-07T19:17:21.694Z,12.17
2019-04-07T19:19:59.452Z,11.70
2019-04-07T19:22:26.735Z,10.53
2019-04-07T19:24:59.051Z,11.93
2019-04-07T19:30:46.893Z,12.10
2019-04-07T19:33:17.865Z,67.80
2019-04-07T19:38:52.196Z,13.43
2019-04-07T19:41:20.435Z,10.90
2019-04-07T19:43:48.060Z,11.37
2019-04-07T19:46:30.639Z,10.37
2019-04-07T19:49:15.054Z,8.63
2019-04-07T19:51:41.719Z,11.80
2019-04-07T19:54:17.693Z,10.77
2019-04-07T19:56:46.435Z,11.10
2019-04-07T19:59:19.495Z,11.20
2019-04-07T20:01:46.258Z,10.60
2019-04-07T20:04:23.736Z,12.97
2019-04-07T20:07:00.768Z,13.83
2019-04-07T20:09:39.483Z,11.50
2019-04-07T20:15:09.126Z,10.70
2019-04-07T20:17:54.786Z,9.57
2019-04-07T20:20:19.506Z,11.50
2019-04-07T20:22:56.396Z,46.23
2019-04-07T20:25:24.671Z,142.40
2019-04-07T20:27:59.049Z,34.13
2019-04-07T20:33:25.012Z,20.12
2019-04-07T20:36:17.727Z,28.17
2019-04-07T20:38:44.285Z,15.00
2019-04-07T20:41:17.155Z,19.30
2019-04-07T20:43:46.652Z,18.23
2019-04-07T20:46:21.540Z,21.97
2019-04-07T20:48:56.570Z,19.60
2019-04-07T20:51:25.393Z,14.93
2019-04-07T20:53:53.694Z,15.40
2019-04-07T20:56:27.827Z,11.80
2019-04-07T21:02:03.439Z,10.75
2019-04-07T21:04:39.577Z,11.43
2019-04-07T21:07:21.237Z,11.73
2019-04-07T21:10:09.488Z,10.90
2019-04-07T21:12:34.199Z,10.57
2019-04-07T21:15:21.022Z,11.33
2019-04-07T21:17:41.590Z,11.07
2019-04-07T21:20:24.030Z,10.60
2019-04-07T21:23:09.383Z,11.83
2019-04-07T21:25:39.520Z,11.03
2019-04-07T21:28:12.575Z,11.37
2019-04-07T21:30:43.017Z,11.60
2019-04-07T21:33:15.249Z,12.00
2019-04-07T21:38:39.208Z,12.20
2019-04-07T21:44:09.144Z,12.82
2019-04-07T21:49:38.256Z,10.50
2019-04-07T21:52:07.557Z,10.90
2019-04-07T21:54:39.618Z,11.63
2019-04-07T21:57:14.866Z,10.63
2019-04-07T21:59:47.862Z,11.23
2019-04-07T22:02:18.334Z,11.53
2019-04-07T22:04:50.609Z,10.10
2019-04-07T22:10:09.505Z,8.68
2019-04-07T22:12:37.848Z,9.67
2019-04-07T22:15:04.667Z,8.53
2019-04-07T22:17:34.428Z,8.00
2019-04-07T22:20:01.480Z,7.77
2019-04-07T22:22:31.094Z,7.73
2019-04-07T22:25:01.210Z,7.37
2019-04-07T22:27:28.673Z,8.00
2019-04-07T22:29:56.570Z,6.83
2019-04-07T22:32:24.345Z,7.50
2019-04-07T22:34:50.906Z,6.90
2019-04-07T22:37:22.176Z,7.30
2019-04-07T22:39:49.148Z,9.27
2019-04-07T22:42:17.157Z,9.10
2019-04-07T22:44:43.955Z,9.53
2019-04-07T22:47:13.143Z,12.07
2019-04-07T22:49:39.148Z,12.30
2019-04-07T22:52:07.567Z,12.10
2019-04-07T22:54:34.862Z,10.50
2019-04-07T22:57:02.778Z,10.30
2019-04-07T22:59:30.312Z,10.10
2019-04-07T23:01:59.778Z,10.33
2019-04-07T23:04:26.460Z,9.50
2019-04-07T23:06:54.019Z,10.77
2019-04-07T23:09:21.849Z,10.83
2019-04-07T23:11:49.188Z,10.60
2019-04-07T23:14:17.934Z,8.97
2019-04-07T23:16:46.478Z,10.30
2019-04-07T23:19:14.545Z,8.70
2019-04-07T23:21:42.100Z,8.10
2019-04-07T23:24:09.728Z,8.97
2019-04-07T23:26:37.294Z,9.13
2019-04-07T23:29:05.754Z,10.30
2019-04-07T23:31:32.463Z,10.07
2019-04-07T23:34:02.806Z,10.30
2019-04-07T23:36:30.555Z,10.30
2019-04-07T23:38:58.140Z,9.27
2019-04-07T23:41:25.686Z,10.18
2019-04-07T23:43:54.008Z,9.03
2019-04-07T23:46:25.720Z,9.07
2019-04-07T23:48:51.817Z,7.60
2019-04-07T23:51:20.676Z,7.60
2019-04-07T23:54:00.920Z,8.03
2019-04-07T23:56:29.394Z,7.77
2019-04-07T23:58:56.269Z,7.40
